sensor_id;sensor_type;location;lat;lon;timestamp;pressure;altitude;pressure_sealevel;temperature;humidity
10071;BME280;5074;53.720;10.014;2022-07-06T00:00:41;101776.09;;;13.97;100.00
10071;BME280;5074;53.720;10.014;2022-07-06T00:03:09;101775.22;;;13.97;100.00
10071;BME280;5074;53.720;10.014;2022-07-06T00:05:38;101770.78;;;13.96;100.00
10071;BME280;5074;53.720;10.014;2022-07-06T00:08:06;101778.31;;;13.84;100.00
10071;BME280;5074;53.720;10.014;2022-07-06T00:10:34;101779.97;;;13.88;100.00
10071;BME280;5074;53.720;10.014;2022-07-06T00:13:02;101777.28;;;13.88;100.00
10071;BME280;5074;53.720;10.014;2022-07-06T00:15:31;101780.84;;;13.89;100.00
10071;BME280;5074;53.720;10.014;2022-07-06T00:17:59;101785.44;;;13.85;100.00
10071;BME280;5074;53.720;10.014;2022-07-06T00:20:28;101782.88;;;13.82;100.00
10071;BME280;5074;53.720;10.014;2022-07-06T00:22:56;101784.69;;;13.80;100.00
10071;BME280;5074;53.720;10.014;2022-07-06T00:25:24;101779.22;;;13.83;100.00
10071;BME280;5074;53.720;10.014;2022-07-06T00:27:52;101774.88;;;13.79;100.00
10071;BME280;5074;53.720;10.014;2022-07-06T00:30:20;101783.09;;;13.75;100.00
10071;BME280;5074;53.720;10.014;2022-07-06T00:32:49;101778.69;;;13.72;100.00
10071;BME280;5074;53.720;10.014;2022-07-06T00:35:17;101783.25;;;13.70;100.00
10071;BME280;5074;53.720;10.014;2022-07-06T00:37:49;101776.06;;;13.70;100.00
10071;BME280;5074;53.720;10.014;2022-07-06T00:40:17;101778.78;;;13.69;100.00
10071;BME280;5074;53.720;10.014;2022-07-06T00:42:46;101773.25;;;13.75;100.00
10071;BME280;5074;53.720;10.014;2022-07-06T00:45:16;101776.06;;;13.70;100.00
10071;BME280;5074;53.720;10.014;2022-07-06T00:47:45;101776.78;;;13.76;100.00
10071;BME280;5074;53.720;10.014;2022-07-06T00:50:16;101774.41;;;13.66;100.00
10071;BME280;5074;53.720;10.014;2022-07-06T00:52:49;101772.59;;;13.67;100.00
10071;BME280;5074;53.720;10.014;2022-07-06T00:55:18;101773.63;;;13.63;100.00
10071;BME280;5074;53.720;10.014;2022-07-06T00:57:47;101775.41;;;13.64;100.00
10071;BME280;5074;53.720;10.014;2022-07-06T01:00:17;101771.81;;;13.63;100.00
10071;BME280;5074;53.720;10.014;2022-07-06T01:02:46;101782.38;;;13.69;100.00
10071;BME280;5074;53.720;10.014;2022-07-06T01:05:16;101780.81;;;13.62;100.00
10071;BME280;5074;53.720;10.014;2022-07-06T01:07:46;101781.59;;;13.66;100.00
10071;BME280;5074;53.720;10.014;2022-07-06T01:10:16;101776.38;;;13.61;100.00
10071;BME280;5074;53.720;10.014;2022-07-06T01:12:46;101782.69;;;13.59;100.00
10071;BME280;5074;53.720;10.014;2022-07-06T01:15:16;101772.13;;;13.54;100.00
10071;BME280;5074;53.720;10.014;2022-07-06T01:17:45;101778.25;;;13.58;100.00
10071;BME280;5074;53.720;10.014;2022-07-06T01:20:15;101769.38;;;13.55;100.00
10071;BME280;5074;53.720;10.014;2022-07-06T01:22:44;101770.53;;;13.47;100.00
10071;BME280;5074;53.720;10.014;2022-07-06T01:25:13;101770.66;;;13.44;100.00
10071;BME280;5074;53.720;10.014;2022-07-06T01:27:42;101780.50;;;13.43;100.00
10071;BME280;5074;53.720;10.014;2022-07-06T01:30:12;101768.00;;;13.42;100.00
10071;BME280;5074;53.720;10.014;2022-07-06T01:32:41;101776.94;;;13.43;100.00
10071;BME280;5074;53.720;10.014;2022-07-06T01:35:11;101767.06;;;13.43;100.00
10071;BME280;5074;53.720;10.014;2022-07-06T01:37:41;101769.78;;;13.42;100.00
10071;BME280;5074;53.720;10.014;2022-07-06T01:40:11;101767.13;;;13.42;100.00
10071;BME280;5074;53.720;10.014;2022-07-06T01:42:40;101768.78;;;13.46;100.00
10071;BME280;5074;53.720;10.014;2022-07-06T01:45:10;101760.09;;;13.37;100.00
10071;BME280;5074;53.720;10.014;2022-07-06T01:47:38;101775.22;;;13.40;100.00
10071;BME280;5074;53.720;10.014;2022-07-06T01:50:08;101771.88;;;13.32;100.00
10071;BME280;5074;53.720;10.014;2022-07-06T01:52:36;101786.00;;;13.09;100.00
10071;BME280;5074;53.720;10.014;2022-07-06T01:55:06;101783.38;;;12.76;100.00
10071;BME280;5074;53.720;10.014;2022-07-06T01:57:34;101789.56;;;12.45;100.00
10071;BME280;5074;53.720;10.014;2022-07-06T02:00:05;101792.56;;;12.32;100.00
10071;BME280;5074;53.720;10.014;2022-07-06T02:02:34;101789.28;;;12.21;100.00
10071;BME280;5074;53.720;10.014;2022-07-06T02:05:02;101782.38;;;12.12;100.00
10071;BME280;5074;53.720;10.014;2022-07-06T02:07:30;101780.63;;;12.10;100.00
10071;BME280;5074;53.720;10.014;2022-07-06T02:09:58;101773.91;;;11.93;100.00
10071;BME280;5074;53.720;10.014;2022-07-06T02:12:28;101774.72;;;11.97;100.00
10071;BME280;5074;53.720;10.014;2022-07-06T02:14:56;101768.66;;;11.87;100.00
10071;BME280;5074;53.720;10.014;2022-07-06T02:17:24;101766.75;;;11.92;100.00
10071;BME280;5074;53.720;10.014;2022-07-06T02:19:52;101759.56;;;11.96;100.00
10071;BME280;5074;53.720;10.014;2022-07-06T02:22:20;101755.38;;;11.82;100.00
10071;BME280;5074;53.720;10.014;2022-07-06T02:24:48;101764.13;;;11.91;100.00
10071;BME280;5074;53.720;10.014;2022-07-06T02:27:16;101774.91;;;11.88;100.00
10071;BME280;5074;53.720;10.014;2022-07-06T02:29:46;101771.28;;;11.90;100.00
10071;BME280;5074;53.720;10.014;2022-07-06T02:32:14;101768.59;;;11.90;100.00
10071;BME280;5074;53.720;10.014;2022-07-06T02:34:42;101772.19;;;11.89;100.00
10071;BME280;5074;53.720;10.014;2022-07-06T02:37:10;101766.75;;;11.92;100.00
10071;BME280;5074;53.720;10.014;2022-07-06T02:39:38;101773.97;;;11.90;100.00
10071;BME280;5074;53.720;10.014;2022-07-06T02:42:06;101772.25;;;11.88;100.00
10071;BME280;5074;53.720;10.014;2022-07-06T02:44:35;101767.88;;;11.84;100.00
10071;BME280;5074;53.720;10.014;2022-07-06T02:47:04;101763.28;;;11.89;100.00
10071;BME280;5074;53.720;10.014;2022-07-06T02:49:32;101757.94;;;11.87;100.00
10071;BME280;5074;53.720;10.014;2022-07-06T02:52:00;101758.75;;;11.91;100.00
10071;BME280;5074;53.720;10.014;2022-07-06T02:54:28;101752.50;;;11.93;100.00
10071;BME280;5074;53.720;10.014;2022-07-06T02:56:56;101751.50;;;11.97;100.00
10071;BME280;5074;53.720;10.014;2022-07-06T02:59:25;101756.78;;;12.01;100.00
10071;BME280;5074;53.720;10.014;2022-07-06T03:01:53;101748.59;;;12.05;100.00
10071;BME280;5074;53.720;10.014;2022-07-06T03:04:22;101749.47;;;12.06;100.00
10071;BME280;5074;53.720;10.014;2022-07-06T03:06:50;101755.75;;;12.06;100.00
10071;BME280;5074;53.720;10.014;2022-07-06T03:09:18;101760.97;;;12.11;100.00
10071;BME280;5074;53.720;10.014;2022-07-06T03:11:47;101748.56;;;12.07;100.00
10071;BME280;5074;53.720;10.014;2022-07-06T03:14:15;101767.97;;;12.16;100.00
10071;BME280;5074;53.720;10.014;2022-07-06T03:16:43;101764.34;;;12.18;100.00
10071;BME280;5074;53.720;10.014;2022-07-06T03:19:16;101772.28;;;12.22;100.00
10071;BME280;5074;53.720;10.014;2022-07-06T03:21:46;101770.44;;;12.24;100.00
10071;BME280;5074;53.720;10.014;2022-07-06T03:24:14;101775.72;;;12.27;100.00
10071;BME280;5074;53.720;10.014;2022-07-06T03:26:42;101775.59;;;12.32;100.00
10071;BME280;5074;53.720;10.014;2022-07-06T03:29:10;101771.13;;;12.32;100.00
10071;BME280;5074;53.720;10.014;2022-07-06T03:31:38;101774.63;;;12.34;100.00
10071;BME280;5074;53.720;10.014;2022-07-06T03:34:06;101770.00;;;12.41;100.00
10071;BME280;5074;53.720;10.014;2022-07-06T03:36:35;101770.75;;;12.46;100.00
10071;BME280;5074;53.720;10.014;2022-07-06T03:39:07;101773.38;;;12.49;100.00
10071;BME280;5074;53.720;10.014;2022-07-06T03:41:35;101775.09;;;12.50;100.00
10071;BME280;5074;53.720;10.014;2022-07-06T03:44:03;101775.22;;;12.46;100.00
10071;BME280;5074;53.720;10.014;2022-07-06T03:46:31;101776.00;;;12.51;100.00
10071;BME280;5074;53.720;10.014;2022-07-06T03:48:59;101774.16;;;12.53;100.00
10071;BME280;5074;53.720;10.014;2022-07-06T03:51:27;101776.81;;;12.53;100.00
10071;BME280;5074;53.720;10.014;2022-07-06T03:53:55;101784.03;;;12.51;100.00
10071;BME280;5074;53.720;10.014;2022-07-06T03:56:25;101783.22;;;12.47;100.00
10071;BME280;5074;53.720;10.014;2022-07-06T03:58:56;101779.63;;;12.48;100.00
10071;BME280;5074;53.720;10.014;2022-07-06T04:01:26;101782.22;;;12.51;100.00
10071;BME280;5074;53.720;10.014;2022-07-06T04:03:54;101777.69;;;12.54;100.00
10071;BME280;5074;53.720;10.014;2022-07-06T04:06:22;101783.28;;;12.46;100.00
10071;BME280;5074;53.720;10.014;2022-07-06T04:08:50;101785.09;;;12.45;100.00
10071;BME280;5074;53.720;10.014;2022-07-06T04:11:19;101790.53;;;12.42;100.00
10071;BME280;5074;53.720;10.014;2022-07-06T04:13:48;101791.31;;;12.46;100.00
10071;BME280;5074;53.720;10.014;2022-07-06T04:16:16;101785.03;;;12.47;100.00
10071;BME280;5074;53.720;10.014;2022-07-06T04:18:44;101776.09;;;12.48;100.00
10071;BME280;5074;53.720;10.014;2022-07-06T04:21:12;101784.97;;;12.50;100.00
10071;BME280;5074;53.720;10.014;2022-07-06T04:23:40;101785.63;;;12.58;100.00
10071;BME280;5074;53.720;10.014;2022-07-06T04:26:09;101789.16;;;12.60;100.00
10071;BME280;5074;53.720;10.014;2022-07-06T04:28:37;101790.81;;;12.64;100.00
10071;BME280;5074;53.720;10.014;2022-07-06T04:31:06;101777.50;;;12.61;100.00
10071;BME280;5074;53.720;10.014;2022-07-06T04:33:35;101772.06;;;12.64;100.00
10071;BME280;5074;53.720;10.014;2022-07-06T04:36:03;101774.69;;;12.66;100.00
10071;BME280;5074;53.720;10.014;2022-07-06T04:38:31;101778.16;;;12.69;100.00
10071;BME280;5074;53.720;10.014;2022-07-06T04:40:59;101777.19;;;12.72;100.00
10071;BME280;5074;53.720;10.014;2022-07-06T04:43:27;101782.59;;;12.71;100.00
10071;BME280;5074;53.720;10.014;2022-07-06T04:45:55;101782.81;;;12.63;100.00
10071;BME280;5074;53.720;10.014;2022-07-06T04:48:25;101791.88;;;12.59;100.00
10071;BME280;5074;53.720;10.014;2022-07-06T04:50:53;101792.00;;;12.54;100.00
10071;BME280;5074;53.720;10.014;2022-07-06T04:53:21;101792.00;;;12.54;100.00
10071;BME280;5074;53.720;10.014;2022-07-06T04:55:49;101791.16;;;12.52;100.00
10071;BME280;5074;53.720;10.014;2022-07-06T04:58:17;101781.38;;;12.51;100.00
10071;BME280;5074;53.720;10.014;2022-07-06T05:00:46;101787.47;;;12.56;100.00
10071;BME280;5074;53.720;10.014;2022-07-06T05:03:14;101784.19;;;12.45;100.00
10071;BME280;5074;53.720;10.014;2022-07-06T05:05:43;101781.72;;;12.37;100.00
10071;BME280;5074;53.720;10.014;2022-07-06T05:08:11;101805.84;;;12.37;100.00
10071;BME280;5074;53.720;10.014;2022-07-06T05:10:39;101783.72;;;12.29;100.00
10071;BME280;5074;53.720;10.014;2022-07-06T05:13:07;101787.16;;;12.34;100.00
10071;BME280;5074;53.720;10.014;2022-07-06T05:15:35;101793.31;;;12.38;100.00
10071;BME280;5074;53.720;10.014;2022-07-06T05:18:04;101794.16;;;12.40;100.00
10071;BME280;5074;53.720;10.014;2022-07-06T05:20:32;101790.59;;;12.41;100.00
10071;BME280;5074;53.720;10.014;2022-07-06T05:23:01;101798.75;;;12.34;100.00
10071;BME280;5074;53.720;10.014;2022-07-06T05:25:29;101793.22;;;12.42;100.00
10071;BME280;5074;53.720;10.014;2022-07-06T05:27:59;101795.81;;;12.45;100.00
10071;BME280;5074;53.720;10.014;2022-07-06T05:30:27;101793.91;;;12.49;100.00
10071;BME280;5074;53.720;10.014;2022-07-06T05:32:55;101794.63;;;12.56;100.00
